createdAt,value
2023-03-06T00:00:56.998Z,-0.10
2023-03-06T00:03:28.021Z,-0.10
2023-03-06T00:05:59.575Z,-0.10
2023-03-06T00:08:29.187Z,0.00
2023-03-06T00:10:57.354Z,-0.10
2023-03-06T00:13:26.883Z,-0.10
2023-03-06T00:15:54.653Z,-0.20
2023-03-06T00:18:22.552Z,-0.30
2023-03-06T00:20:50.373Z,-0.10
2023-03-06T00:23:18.127Z,-0.10
2023-03-06T00:25:46.551Z,0.00
2023-03-06T00:28:15.865Z,0.10
2023-03-06T00:30:46.129Z,0.10
2023-03-06T00:33:13.998Z,0.10
2023-03-06T00:35:42.276Z,0.00
2023-03-06T00:38:12.630Z,-0.10
2023-03-06T00:40:40.651Z,-0.10
2023-03-06T00:43:08.332Z,-0.10
2023-03-06T00:45:39.431Z,-0.10
2023-03-06T00:48:09.927Z,-0.20
2023-03-06T00:50:37.947Z,-0.10
2023-03-06T00:53:05.595Z,-0.10
2023-03-06T00:55:33.620Z,-0.10
2023-03-06T00:58:01.429Z,-0.10
2023-03-06T01:00:29.134Z,-0.10
2023-03-06T01:02:56.992Z,-0.20
2023-03-06T01:05:24.968Z,-0.20
2023-03-06T01:07:52.970Z,-0.20
2023-03-06T01:10:20.793Z,-0.20
2023-03-06T01:12:50.140Z,-0.20
2023-03-06T01:15:19.483Z,-0.20
2023-03-06T01:17:47.258Z,-0.10
2023-03-06T01:20:17.221Z,-0.10
2023-03-06T01:22:45.172Z,0.00
2023-03-06T01:25:13.043Z,0.00
2023-03-06T01:27:40.887Z,0.00
2023-03-06T01:30:12.588Z,-0.10
2023-03-06T01:32:40.496Z,-0.10
2023-03-06T01:35:09.096Z,-0.10
2023-03-06T01:37:38.023Z,0.00
2023-03-06T01:40:07.290Z,0.00
2023-03-06T01:42:35.172Z,0.00
2023-03-06T01:45:29.230Z,-0.10
2023-03-06T01:47:57.427Z,0.00
2023-03-06T01:50:25.322Z,0.00
2023-03-06T01:52:56.810Z,0.00
2023-03-06T01:55:33.266Z,0.00
2023-03-06T01:58:05.333Z,0.00
2023-03-06T02:00:33.606Z,0.00
2023-03-06T02:03:13.887Z,0.00
2023-03-06T02:05:43.823Z,0.10
2023-03-06T02:08:16.323Z,0.10
2023-03-06T02:11:08.166Z,0.00
2023-03-06T02:13:37.129Z,0.00
2023-03-06T02:16:05.945Z,0.00
2023-03-06T02:18:34.732Z,0.00
2023-03-06T02:21:12.207Z,0.10
2023-03-06T02:24:06.480Z,0.20
2023-03-06T02:26:36.674Z,0.10
2023-03-06T02:29:04.586Z,0.10
2023-03-06T02:31:35.759Z,0.20
2023-03-06T02:34:23.746Z,0.10
2023-03-06T02:36:57.981Z,0.00
2023-03-06T02:39:29.957Z,0.00
2023-03-06T02:41:57.854Z,-0.10
2023-03-06T02:44:28.938Z,0.00
2023-03-06T02:46:56.744Z,0.00
2023-03-06T02:49:26.374Z,0.00
2023-03-06T02:51:54.345Z,-0.10
2023-03-06T02:54:22.077Z,-0.20
2023-03-06T02:56:50.333Z,-0.10
2023-03-06T02:59:18.522Z,-0.10
2023-03-06T03:01:47.838Z,-0.10
2023-03-06T03:04:15.713Z,0.00
2023-03-06T03:06:43.755Z,0.00
2023-03-06T03:09:12.117Z,0.00
2023-03-06T03:11:40.615Z,-0.10
2023-03-06T03:14:08.403Z,-0.10
2023-03-06T03:16:39.145Z,-0.10
2023-03-06T03:19:07.159Z,-0.10
2023-03-06T03:21:35.477Z,0.00
2023-03-06T03:24:03.548Z,-0.10
2023-03-06T03:26:31.584Z,0.00
2023-03-06T03:29:08.170Z,0.00
2023-03-06T03:31:36.574Z,0.00
2023-03-06T03:34:05.342Z,0.00
2023-03-06T03:36:37.972Z,0.10
2023-03-06T03:39:07.529Z,0.10
2023-03-06T03:41:36.465Z,0.10
2023-03-06T03:44:08.686Z,0.00
2023-03-06T03:46:37.048Z,0.00
2023-03-06T03:49:07.987Z,-0.10
2023-03-06T03:51:37.042Z,0.00
2023-03-06T03:54:06.311Z,0.10
2023-03-06T03:56:40.758Z,0.00
2023-03-06T03:59:14.519Z,0.00
2023-03-06T04:01:52.222Z,0.10
2023-03-06T04:04:20.107Z,0.00
2023-03-06T04:06:47.994Z,0.00
2023-03-06T04:09:17.696Z,0.10
2023-03-06T04:11:46.099Z,0.00
2023-03-06T04:14:14.554Z,0.00
2023-03-06T04:16:43.252Z,0.00
2023-03-06T04:19:13.855Z,0.10
2023-03-06T04:21:41.564Z,0.00
2023-03-06T04:24:09.967Z,0.00
2023-03-06T04:26:37.943Z,-0.10
2023-03-06T04:29:06.709Z,0.00
2023-03-06T04:31:34.719Z,0.00
2023-03-06T04:34:02.539Z,0.10
2023-03-06T04:36:31.970Z,0.10
2023-03-06T04:39:05.475Z,0.00
2023-03-06T04:41:35.174Z,0.00
2023-03-06T04:44:03.131Z,-0.10
2023-03-06T04:46:30.923Z,-0.10
2023-03-06T04:48:59.076Z,0.10
2023-03-06T04:51:26.963Z,0.10
2023-03-06T04:53:54.681Z,0.10
2023-03-06T04:56:25.391Z,0.00
2023-03-06T04:58:53.087Z,0.00
2023-03-06T05:01:23.956Z,0.00
2023-03-06T05:03:51.724Z,-0.10
2023-03-06T05:06:19.522Z,-0.20
2023-03-06T05:08:48.232Z,-0.10
2023-03-06T05:11:16.239Z,-0.10
2023-03-06T05:13:44.214Z,0.00
2023-03-06T05:16:12.025Z,0.00
2023-03-06T05:18:39.954Z,0.10
2023-03-06T05:21:07.695Z,0.00
2023-03-06T05:23:38.495Z,0.00
2023-03-06T05:26:09.465Z,-0.10
2023-03-06T05:28:37.467Z,-0.20
2023-03-06T05:31:05.708Z,-0.10
2023-03-06T05:33:34.960Z,0.00
2023-03-06T05:36:02.990Z,0.00
2023-03-06T05:38:30.690Z,0.00
2023-03-06T05:40:58.419Z,0.00
2023-03-06T05:43:26.136Z,0.00
2023-03-06T05:46:04.814Z,0.10
2023-03-06T05:48:33.548Z,0.10
2023-03-06T05:51:02.294Z,-0.10
2023-03-06T05:53:30.806Z,0.00
2023-03-06T05:56:05.501Z,0.00
2023-03-06T05:58:34.529Z,0.10
2023-03-06T06:01:13.318Z,0.10
2023-03-06T06:03:41.518Z,0.10
2023-03-06T06:06:14.185Z,0.10
2023-03-06T06:08:42.266Z,0.10
2023-03-06T06:11:11.320Z,0.20
2023-03-06T06:13:40.020Z,0.20
2023-03-06T06:16:15.779Z,0.10
2023-03-06T06:18:44.065Z,0.00
2023-03-06T06:21:14.661Z,0.10
2023-03-06T06:23:42.464Z,0.10
2023-03-06T06:26:10.771Z,0.10
2023-03-06T06:28:38.435Z,0.10
2023-03-06T06:31:11.153Z,0.10
2023-03-06T06:33:40.178Z,0.30
2023-03-06T06:36:21.684Z,0.40
2023-03-06T06:38:50.302Z,0.40
2023-03-06T06:41:42.366Z,0.30
2023-03-06T06:44:09.368Z,0.30
2023-03-06T06:49:25.658Z,0.50
2023-03-06T06:51:53.481Z,0.70
2023-03-06T06:54:22.425Z,0.70
2023-03-06T06:56:50.185Z,0.80
2023-03-06T06:59:18.135Z,0.70
2023-03-06T07:01:45.894Z,0.70
2023-03-06T07:04:14.847Z,0.90
2023-03-06T07:06:43.101Z,0.80
2023-03-06T07:09:12.287Z,0.90
2023-03-06T07:11:40.980Z,1.10
2023-03-06T07:14:09.297Z,1.10
2023-03-06T07:16:36.989Z,1.10
2023-03-06T07:19:04.732Z,1.10
2023-03-06T07:21:32.397Z,1.30
2023-03-06T07:24:00.279Z,1.40
2023-03-06T07:26:29.094Z,1.30
2023-03-06T07:28:56.831Z,1.40
2023-03-06T07:31:27.180Z,1.40
2023-03-06T07:33:55.365Z,1.50
2023-03-06T07:36:24.219Z,1.60
2023-03-06T07:38:51.904Z,1.50
2023-03-06T07:41:22.573Z,1.70
2023-03-06T07:43:51.046Z,1.70
2023-03-06T07:46:19.823Z,1.80
2023-03-06T07:48:47.513Z,1.80
2023-03-06T07:51:20.760Z,1.90
2023-03-06T07:53:49.586Z,2.00
2023-03-06T07:56:17.333Z,2.00
2023-03-06T07:58:46.327Z,2.00
2023-03-06T08:01:17.112Z,2.10
2023-03-06T08:03:45.097Z,2.10
2023-03-06T08:06:16.318Z,2.20
2023-03-06T08:08:45.967Z,2.30
2023-03-06T08:11:16.904Z,2.40
2023-03-06T08:13:45.112Z,2.60
2023-03-06T08:16:12.815Z,2.70
2023-03-06T08:18:40.740Z,2.80
2023-03-06T08:21:11.756Z,3.20
2023-03-06T08:23:42.658Z,3.10
2023-03-06T08:26:19.824Z,3.20
2023-03-06T08:28:47.948Z,3.30
2023-03-06T08:31:21.797Z,3.50
2023-03-06T08:33:49.617Z,3.50
2023-03-06T08:36:17.308Z,3.70
2023-03-06T08:38:45.082Z,3.80
2023-03-06T08:41:12.983Z,3.90
2023-03-06T08:43:40.867Z,3.90
2023-03-06T08:46:09.986Z,4.00
2023-03-06T08:48:39.235Z,4.00
2023-03-06T08:51:09.705Z,4.10
2023-03-06T08:53:43.635Z,3.80
2023-03-06T08:56:24.229Z,3.80
2023-03-06T08:58:52.910Z,4.20
2023-03-06T09:01:27.024Z,4.10
2023-03-06T09:03:56.583Z,4.10
2023-03-06T09:06:25.733Z,4.30
2023-03-06T09:08:54.066Z,4.50
2023-03-06T09:11:23.277Z,4.50
2023-03-06T09:13:51.613Z,4.50
2023-03-06T09:16:19.769Z,4.50
2023-03-06T09:18:50.031Z,4.20
2023-03-06T09:21:17.765Z,4.10
2023-03-06T09:23:45.823Z,4.40
2023-03-06T09:26:13.657Z,4.60
2023-03-06T09:28:42.113Z,4.40
2023-03-06T09:31:19.262Z,4.40
2023-03-06T09:33:47.531Z,4.50
2023-03-06T09:36:19.285Z,4.60
2023-03-06T09:38:49.920Z,4.80
2023-03-06T09:41:31.722Z,4.90
2023-03-06T09:44:09.183Z,4.90
2023-03-06T09:47:31.870Z,4.90
2023-03-06T09:50:14.103Z,4.90
2023-03-06T09:52:52.410Z,5.10
2023-03-06T09:55:24.870Z,5.10
2023-03-06T09:58:02.671Z,5.20
2023-03-06T10:00:48.950Z,5.40
2023-03-06T10:03:46.365Z,5.50
2023-03-06T10:06:23.105Z,5.60
2023-03-06T10:08:56.468Z,5.80
2023-03-06T10:11:47.255Z,5.70
2023-03-06T10:14:17.973Z,5.70
2023-03-06T10:16:45.837Z,5.50
2023-03-06T10:19:21.349Z,5.40
2023-03-06T10:21:51.950Z,5.40
2023-03-06T10:24:40.055Z,5.50
2023-03-06T10:27:23.686Z,5.70
2023-03-06T10:30:03.963Z,5.80
2023-03-06T10:33:08.003Z,5.80
2023-03-06T10:35:48.993Z,5.60
2023-03-06T10:38:38.540Z,5.50
2023-03-06T10:41:31.976Z,5.70
2023-03-06T10:43:59.922Z,5.90
2023-03-06T10:46:33.180Z,5.90
2023-03-06T10:49:03.900Z,6.30
2023-03-06T10:51:33.027Z,6.50
2023-03-06T10:54:04.416Z,6.50
2023-03-06T10:56:43.580Z,6.50
2023-03-06T10:59:18.495Z,6.60
2023-03-06T11:01:51.984Z,6.80
2023-03-06T11:04:29.159Z,6.90
2023-03-06T11:07:14.859Z,7.00
2023-03-06T11:09:44.706Z,7.00
2023-03-06T11:12:28.738Z,7.10
2023-03-06T11:15:14.588Z,7.10
2023-03-06T11:17:48.361Z,7.00
2023-03-06T11:20:19.383Z,7.00
2023-03-06T11:22:56.325Z,6.90
2023-03-06T11:25:32.381Z,6.70
2023-03-06T11:28:22.879Z,6.70
2023-03-06T11:30:55.727Z,6.60
2023-03-06T11:33:58.744Z,6.90
2023-03-06T11:36:45.451Z,6.90
2023-03-06T11:39:22.421Z,6.70
2023-03-06T11:41:56.564Z,7.00
2023-03-06T11:44:42.012Z,6.80
2023-03-06T11:47:29.806Z,6.70
2023-03-06T11:50:03.317Z,6.40
2023-03-06T11:52:59.266Z,6.60
2023-03-06T11:55:39.124Z,6.90
2023-03-06T11:58:29.989Z,7.10
2023-03-06T12:01:22.589Z,6.80
2023-03-06T12:03:59.329Z,7.00
2023-03-06T12:06:35.420Z,7.00
2023-03-06T12:09:16.379Z,7.10
2023-03-06T12:12:02.760Z,7.00
2023-03-06T12:14:30.320Z,7.10
2023-03-06T12:17:00.732Z,7.20
2023-03-06T12:19:34.218Z,7.20
2023-03-06T12:22:21.555Z,7.10
2023-03-06T12:25:01.024Z,7.10
2023-03-06T12:27:28.837Z,7.10
2023-03-06T12:30:50.327Z,7.00
2023-03-06T12:33:33.699Z,7.00
2023-03-06T12:36:19.521Z,6.80
2023-03-06T12:38:53.023Z,6.90
2023-03-06T12:42:23.020Z,7.00
2023-03-06T12:44:59.310Z,7.10
2023-03-06T12:47:29.219Z,7.10
2023-03-06T12:50:02.860Z,7.00
2023-03-06T12:52:34.182Z,7.10
2023-03-06T12:55:17.544Z,7.20
2023-03-06T12:57:48.315Z,7.10
2023-03-06T13:00:35.941Z,6.90
2023-03-06T13:03:14.638Z,7.00
2023-03-06T13:06:32.298Z,7.10
2023-03-06T13:09:11.383Z,7.20
2023-03-06T13:12:17.915Z,7.30
2023-03-06T13:14:54.004Z,7.00
2023-03-06T13:17:32.278Z,7.10
2023-03-06T13:20:27.564Z,7.10
2023-03-06T13:22:55.575Z,7.00
2023-03-06T13:25:23.208Z,7.00
2023-03-06T13:27:53.727Z,7.00
2023-03-06T13:30:36.803Z,7.00
2023-03-06T13:33:33.031Z,6.80
2023-03-06T13:36:24.903Z,6.80
2023-03-06T13:38:55.270Z,6.70
2023-03-06T13:41:23.004Z,6.50
2023-03-06T13:43:59.525Z,6.40
2023-03-06T13:46:36.721Z,6.40
2023-03-06T13:49:10.707Z,6.30
2023-03-06T13:51:39.660Z,6.30
2023-03-06T13:54:12.311Z,6.30
2023-03-06T13:56:54.892Z,6.30
2023-03-06T14:00:08.629Z,6.50
2023-03-06T14:03:14.587Z,6.80
2023-03-06T14:05:50.894Z,6.90
2023-03-06T14:08:30.437Z,7.00
2023-03-06T14:11:22.610Z,6.80
2023-03-06T14:13:54.354Z,6.70
2023-03-06T14:16:32.687Z,6.60
2023-03-06T14:19:06.673Z,6.50
2023-03-06T14:21:42.222Z,6.50
2023-03-06T14:24:18.493Z,6.30
2023-03-06T14:26:49.799Z,6.10
2023-03-06T14:29:28.307Z,6.10
2023-03-06T14:31:58.899Z,6.10
2023-03-06T14:34:29.441Z,6.00
2023-03-06T14:37:03.255Z,5.90
2023-03-06T14:39:40.293Z,5.90
2023-03-06T14:42:20.330Z,5.90
2023-03-06T14:44:49.713Z,5.80
2023-03-06T14:47:27.945Z,5.70
2023-03-06T14:50:24.978Z,5.60
2023-03-06T14:52:55.721Z,5.50
2023-03-06T14:55:29.054Z,5.50
2023-03-06T14:58:02.219Z,5.50
2023-03-06T15:00:37.721Z,5.40
2023-03-06T15:03:12.816Z,5.40
2023-03-06T15:05:43.374Z,5.30
2023-03-06T15:08:17.074Z,5.30
2023-03-06T15:11:02.649Z,5.20
2023-03-06T15:13:32.353Z,5.30
2023-03-06T15:16:13.729Z,5.10
2023-03-06T15:19:04.394Z,5.10
2023-03-06T15:21:37.045Z,5.10
2023-03-06T15:24:35.324Z,5.00
2023-03-06T15:27:06.379Z,4.90
2023-03-06T15:29:38.095Z,4.90
2023-03-06T15:32:24.766Z,4.80
2023-03-06T15:38:38.952Z,4.70
2023-03-06T15:41:22.311Z,4.70
2023-03-06T15:43:56.256Z,4.70
2023-03-06T15:46:31.857Z,4.70
2023-03-06T15:49:05.281Z,4.60
2023-03-06T15:51:34.164Z,4.60
2023-03-06T15:54:11.963Z,4.60
2023-03-06T15:56:43.053Z,4.60
2023-03-06T15:59:25.012Z,4.60
2023-03-06T16:01:53.008Z,4.50
2023-03-06T16:04:23.698Z,4.40
2023-03-06T16:06:51.410Z,4.30
2023-03-06T16:09:19.102Z,4.30
2023-03-06T16:11:47.376Z,4.30
2023-03-06T16:14:21.139Z,4.30
2023-03-06T16:16:50.472Z,4.30
2023-03-06T16:19:26.340Z,4.30
2023-03-06T16:21:56.477Z,4.20
2023-03-06T16:24:26.359Z,4.20
2023-03-06T16:26:55.561Z,4.20
2023-03-06T16:29:27.010Z,4.10
2023-03-06T16:31:59.051Z,4.10
2023-03-06T16:34:26.745Z,4.10
2023-03-06T16:36:54.528Z,4.10
2023-03-06T16:39:23.857Z,4.00
2023-03-06T16:42:00.947Z,4.00
2023-03-06T16:44:28.623Z,4.00
2023-03-06T16:47:01.412Z,3.90
2023-03-06T16:49:38.548Z,3.90
2023-03-06T16:52:26.458Z,3.90
2023-03-06T16:54:55.233Z,3.80
2023-03-06T16:57:24.183Z,3.70
2023-03-06T16:59:51.932Z,3.60
2023-03-06T17:02:20.025Z,3.50
2023-03-06T17:04:47.769Z,3.50
2023-03-06T17:07:15.495Z,3.50
2023-03-06T17:09:43.511Z,3.50
2023-03-06T17:12:11.318Z,3.50
2023-03-06T17:14:38.964Z,3.50
2023-03-06T17:17:07.880Z,3.50
2023-03-06T17:19:35.687Z,3.50
2023-03-06T17:22:03.443Z,3.40
2023-03-06T17:24:31.235Z,3.40
2023-03-06T17:26:59.977Z,3.30
2023-03-06T17:29:27.679Z,3.30
2023-03-06T17:31:55.503Z,3.20
2023-03-06T17:34:24.544Z,3.20
2023-03-06T17:36:52.350Z,3.20
2023-03-06T17:39:20.005Z,3.20
2023-03-06T17:41:47.632Z,3.20
2023-03-06T17:44:17.558Z,3.20
2023-03-06T17:46:50.008Z,3.20
2023-03-06T17:49:20.249Z,3.20
2023-03-06T17:51:47.944Z,3.10
2023-03-06T17:54:16.144Z,3.10
2023-03-06T17:56:44.139Z,3.10
2023-03-06T17:59:12.227Z,3.10
2023-03-06T18:01:47.510Z,3.00
2023-03-06T18:04:15.534Z,3.00
2023-03-06T18:06:46.321Z,3.00
2023-03-06T18:09:14.510Z,2.90
2023-03-06T18:11:42.369Z,2.90
2023-03-06T18:14:10.257Z,3.00
2023-03-06T18:16:41.408Z,3.00
2023-03-06T18:19:11.263Z,3.00
2023-03-06T18:21:40.060Z,3.00
2023-03-06T18:24:08.963Z,2.90
2023-03-06T18:26:36.942Z,2.90
2023-03-06T18:29:04.779Z,2.90
2023-03-06T18:31:35.280Z,2.80
2023-03-06T18:34:19.529Z,2.80
2023-03-06T18:36:48.358Z,2.80
2023-03-06T18:39:16.315Z,2.70
2023-03-06T18:41:44.077Z,2.70
2023-03-06T18:44:15.279Z,2.70
2023-03-06T18:46:43.177Z,2.70
2023-03-06T18:49:12.560Z,2.70
2023-03-06T18:51:40.272Z,2.70
2023-03-06T18:54:08.380Z,2.70
2023-03-06T18:56:41.806Z,2.80
2023-03-06T18:59:14.505Z,2.80
2023-03-06T19:01:46.008Z,2.80
2023-03-06T19:04:14.066Z,2.70
2023-03-06T19:06:42.865Z,2.80
2023-03-06T19:09:20.498Z,2.70
2023-03-06T19:11:49.090Z,2.60
2023-03-06T19:14:21.701Z,2.70
2023-03-06T19:16:50.120Z,2.70
2023-03-06T19:19:17.765Z,2.70
2023-03-06T19:21:45.595Z,2.60
2023-03-06T19:24:14.220Z,2.60
2023-03-06T19:26:42.743Z,2.60
2023-03-06T19:29:12.898Z,2.60
2023-03-06T19:31:41.775Z,2.60
2023-03-06T19:34:09.619Z,2.50
2023-03-06T19:36:38.864Z,2.50
2023-03-06T19:39:12.181Z,2.50
2023-03-06T19:41:52.673Z,2.50
2023-03-06T19:44:21.421Z,2.50
2023-03-06T19:46:49.026Z,2.60
2023-03-06T19:49:22.669Z,2.50
2023-03-06T19:52:04.838Z,2.50
2023-03-06T19:54:47.091Z,2.50
2023-03-06T19:57:14.784Z,2.60
2023-03-06T19:59:43.230Z,2.60
2023-03-06T20:02:11.483Z,2.70
2023-03-06T20:04:39.495Z,2.60
2023-03-06T20:07:07.177Z,2.60
2023-03-06T20:09:35.182Z,2.70
2023-03-06T20:12:03.199Z,2.70
2023-03-06T20:14:31.157Z,2.70
2023-03-06T20:16:59.750Z,2.60
2023-03-06T20:19:27.903Z,2.50
2023-03-06T20:21:58.240Z,2.60
2023-03-06T20:24:26.146Z,2.70
2023-03-06T20:26:57.578Z,2.60
2023-03-06T20:29:28.397Z,2.60
2023-03-06T20:31:57.419Z,2.60
2023-03-06T20:34:28.368Z,2.50
2023-03-06T20:36:57.908Z,2.50
2023-03-06T20:39:26.763Z,2.50
2023-03-06T20:41:54.967Z,2.40
2023-03-06T20:44:23.315Z,2.40
2023-03-06T20:46:52.175Z,2.40
2023-03-06T20:49:20.463Z,2.40
2023-03-06T20:51:51.129Z,2.40
2023-03-06T20:54:18.841Z,2.40
2023-03-06T20:56:48.764Z,2.40
2023-03-06T20:59:16.794Z,2.40
2023-03-06T21:01:46.200Z,2.30
2023-03-06T21:04:14.901Z,2.30
2023-03-06T21:06:46.672Z,2.30
2023-03-06T21:09:16.862Z,2.30
2023-03-06T21:11:45.253Z,2.30
2023-03-06T21:14:14.447Z,2.20
2023-03-06T21:16:42.892Z,2.20
2023-03-06T21:19:11.540Z,2.20
2023-03-06T21:21:39.466Z,2.20
2023-03-06T21:24:07.585Z,2.20
2023-03-06T21:26:35.283Z,2.20
2023-03-06T21:29:03.822Z,2.20
2023-03-06T21:31:33.578Z,2.20
2023-03-06T21:34:04.501Z,2.20
2023-03-06T21:36:33.408Z,2.20
2023-03-06T21:39:01.439Z,2.20
2023-03-06T21:41:30.699Z,2.10
2023-03-06T21:44:05.305Z,2.10
2023-03-06T21:46:33.688Z,2.10
2023-03-06T21:49:04.350Z,2.20
2023-03-06T21:51:53.421Z,2.20
2023-03-06T21:54:21.721Z,2.20
2023-03-06T21:56:49.412Z,2.10
2023-03-06T21:59:17.230Z,2.10
2023-03-06T22:01:45.012Z,2.00
2023-03-06T22:04:12.805Z,2.00
2023-03-06T22:06:41.166Z,2.00
2023-03-06T22:09:09.917Z,2.00
2023-03-06T22:11:37.714Z,2.00
2023-03-06T22:14:06.577Z,2.00
2023-03-06T22:16:34.429Z,1.90
2023-03-06T22:19:02.204Z,2.00
2023-03-06T22:21:29.977Z,2.00
2023-03-06T22:23:58.443Z,2.00
2023-03-06T22:26:30.429Z,2.10
2023-03-06T22:28:58.175Z,2.00
2023-03-06T22:31:28.515Z,1.90
2023-03-06T22:33:58.692Z,2.00
2023-03-06T22:36:28.670Z,2.00
2023-03-06T22:38:58.992Z,2.00
2023-03-06T22:41:27.525Z,2.00
2023-03-06T22:44:00.177Z,1.90
2023-03-06T22:46:28.772Z,1.90
2023-03-06T22:48:57.665Z,1.90
2023-03-06T22:51:27.015Z,2.00
2023-03-06T22:53:54.707Z,2.00
2023-03-06T22:56:22.802Z,2.00
2023-03-06T22:58:50.960Z,2.00
2023-03-06T23:01:21.559Z,1.90
2023-03-06T23:03:52.577Z,1.90
2023-03-06T23:06:36.183Z,1.90
2023-03-06T23:09:15.926Z,1.90
2023-03-06T23:12:02.198Z,2.00
2023-03-06T23:14:51.065Z,2.00
2023-03-06T23:17:37.365Z,2.00
2023-03-06T23:20:23.436Z,2.00
2023-03-06T23:23:10.262Z,1.90
2023-03-06T23:25:44.648Z,1.90
2023-03-06T23:28:12.681Z,2.00
2023-03-06T23:30:41.091Z,2.00
2023-03-06T23:33:09.233Z,2.00
2023-03-06T23:35:37.866Z,2.00
2023-03-06T23:38:05.796Z,2.00
2023-03-06T23:40:34.816Z,2.00
2023-03-06T23:43:03.181Z,1.90
2023-03-06T23:45:31.838Z,1.90
2023-03-06T23:47:59.715Z,1.90
2023-03-06T23:50:28.042Z,1.90
2023-03-06T23:52:56.058Z,1.80
2023-03-06T23:55:23.969Z,1.80
2023-03-06T23:57:51.885Z,1.80
